sensor_id;sensor_type;location;lat;lon;timestamp;temperature;humidity
69281;SHT31;56392;51.082;17.080;2023-04-15T00:03:54;11.27;88.17
69281;SHT31;56392;51.082;17.080;2023-04-15T00:09:18;11.25;88.24
69281;SHT31;56392;51.082;17.080;2023-04-15T00:14:42;11.25;88.19
69281;SHT31;56392;51.082;17.080;2023-04-15T00:20:07;11.22;88.25
69281;SHT31;56392;51.082;17.080;2023-04-15T00:25:31;11.24;88.13
69281;SHT31;56392;51.082;17.080;2023-04-15T00:30:54;11.21;88.15
69281;SHT31;56392;51.082;17.080;2023-04-15T00:36:19;11.19;88.12
69281;SHT31;56392;51.082;17.080;2023-04-15T00:41:43;11.21;87.93
69281;SHT31;56392;51.082;17.080;2023-04-15T00:47:07;11.17;88.04
69281;SHT31;56392;51.082;17.080;2023-04-15T00:52:33;11.21;87.91
69281;SHT31;56392;51.082;17.080;2023-04-15T00:57:56;11.18;87.68
69281;SHT31;56392;51.082;17.080;2023-04-15T01:03:19;11.17;87.72
69281;SHT31;56392;51.082;17.080;2023-04-15T01:08:44;11.18;87.46
69281;SHT31;56392;51.082;17.080;2023-04-15T01:14:08;11.17;87.60
69281;SHT31;56392;51.082;17.080;2023-04-15T01:19:33;11.11;87.78
69281;SHT31;56392;51.082;17.080;2023-04-15T01:25:00;11.15;87.60
69281;SHT31;56392;51.082;17.080;2023-04-15T01:30:27;11.18;87.56
69281;SHT31;56392;51.082;17.080;2023-04-15T01:35:50;11.15;87.52
69281;SHT31;56392;51.082;17.080;2023-04-15T01:41:13;11.12;87.52
69281;SHT31;56392;51.082;17.080;2023-04-15T01:46:38;11.15;87.09
69281;SHT31;56392;51.082;17.080;2023-04-15T01:52:02;11.18;87.14
69281;SHT31;56392;51.082;17.080;2023-04-15T01:57:25;11.22;87.12
69281;SHT31;56392;51.082;17.080;2023-04-15T02:02:49;11.24;87.03
69281;SHT31;56392;51.082;17.080;2023-04-15T02:08:12;11.31;86.92
69281;SHT31;56392;51.082;17.080;2023-04-15T02:13:35;11.29;86.96
69281;SHT31;56392;51.082;17.080;2023-04-15T02:19:00;11.32;86.94
69281;SHT31;56392;51.082;17.080;2023-04-15T02:24:24;11.27;86.97
69281;SHT31;56392;51.082;17.080;2023-04-15T02:29:47;11.25;86.63
69281;SHT31;56392;51.082;17.080;2023-04-15T02:35:13;11.25;86.37
69281;SHT31;56392;51.082;17.080;2023-04-15T02:40:36;11.22;86.63
69281;SHT31;56392;51.082;17.080;2023-04-15T02:45:59;11.15;86.68
69281;SHT31;56392;51.082;17.080;2023-04-15T02:51:24;11.12;86.53
69281;SHT31;56392;51.082;17.080;2023-04-15T02:56:47;11.07;86.25
69281;SHT31;56392;51.082;17.080;2023-04-15T03:08:30;11.04;85.44
69281;SHT31;56392;51.082;17.080;2023-04-15T03:13:53;10.91;84.72
69281;SHT31;56392;51.082;17.080;2023-04-15T03:19:16;10.81;83.60
69281;SHT31;56392;51.082;17.080;2023-04-15T03:24:41;10.70;83.12
69281;SHT31;56392;51.082;17.080;2023-04-15T03:30:05;10.64;83.00
69281;SHT31;56392;51.082;17.080;2023-04-15T03:35:28;10.57;82.81
69281;SHT31;56392;51.082;17.080;2023-04-15T03:40:53;10.55;82.69
69281;SHT31;56392;51.082;17.080;2023-04-15T03:46:16;10.45;82.68
69281;SHT31;56392;51.082;17.080;2023-04-15T03:51:39;10.40;82.45
69281;SHT31;56392;51.082;17.080;2023-04-15T03:57:03;10.39;82.74
69281;SHT31;56392;51.082;17.080;2023-04-15T04:02:27;10.37;82.66
69281;SHT31;56392;51.082;17.080;2023-04-15T04:07:51;10.33;82.82
69281;SHT31;56392;51.082;17.080;2023-04-15T04:13:16;10.29;82.61
69281;SHT31;56392;51.082;17.080;2023-04-15T04:18:39;10.22;82.52
69281;SHT31;56392;51.082;17.080;2023-04-15T04:24:03;10.10;82.37
69281;SHT31;56392;51.082;17.080;2023-04-15T04:29:27;10.09;82.64
69281;SHT31;56392;51.082;17.080;2023-04-15T04:34:50;10.08;82.11
69281;SHT31;56392;51.082;17.080;2023-04-15T04:40:14;10.05;81.86
69281;SHT31;56392;51.082;17.080;2023-04-15T04:45:39;10.02;81.86
69281;SHT31;56392;51.082;17.080;2023-04-15T04:51:02;9.99;81.39
69281;SHT31;56392;51.082;17.080;2023-04-15T04:56:25;9.99;81.26
69281;SHT31;56392;51.082;17.080;2023-04-15T05:01:50;9.95;80.30
69281;SHT31;56392;51.082;17.080;2023-04-15T05:07:13;9.91;80.16
69281;SHT31;56392;51.082;17.080;2023-04-15T05:12:36;9.89;80.03
69281;SHT31;56392;51.082;17.080;2023-04-15T05:18:01;9.84;80.30
69281;SHT31;56392;51.082;17.080;2023-04-15T05:23:25;9.84;80.40
69281;SHT31;56392;51.082;17.080;2023-04-15T05:28:48;9.84;80.34
69281;SHT31;56392;51.082;17.080;2023-04-15T05:34:13;9.81;79.92
69281;SHT31;56392;51.082;17.080;2023-04-15T05:39:37;9.78;80.10
69281;SHT31;56392;51.082;17.080;2023-04-15T05:45:00;9.84;80.63
69281;SHT31;56392;51.082;17.080;2023-04-15T05:50:29;9.88;80.09
69281;SHT31;56392;51.082;17.080;2023-04-15T05:55:52;9.89;80.20
69281;SHT31;56392;51.082;17.080;2023-04-15T06:01:15;9.95;80.34
69281;SHT31;56392;51.082;17.080;2023-04-15T06:06:40;9.99;80.18
69281;SHT31;56392;51.082;17.080;2023-04-15T06:12:03;10.05;80.03
69281;SHT31;56392;51.082;17.080;2023-04-15T06:17:32;10.03;78.68
69281;SHT31;56392;51.082;17.080;2023-04-15T06:22:58;10.03;77.32
69281;SHT31;56392;51.082;17.080;2023-04-15T06:28:22;10.01;77.09
69281;SHT31;56392;51.082;17.080;2023-04-15T06:33:45;9.99;75.89
69281;SHT31;56392;51.082;17.080;2023-04-15T06:39:10;9.95;75.25
69281;SHT31;56392;51.082;17.080;2023-04-15T06:44:34;9.95;75.63
69281;SHT31;56392;51.082;17.080;2023-04-15T06:49:58;9.95;75.22
69281;SHT31;56392;51.082;17.080;2023-04-15T06:55:22;9.96;75.52
69281;SHT31;56392;51.082;17.080;2023-04-15T07:00:47;9.96;74.73
69281;SHT31;56392;51.082;17.080;2023-04-15T07:06:13;9.98;74.60
69281;SHT31;56392;51.082;17.080;2023-04-15T07:11:37;10.06;74.15
69281;SHT31;56392;51.082;17.080;2023-04-15T07:17:00;10.08;73.54
69281;SHT31;56392;51.082;17.080;2023-04-15T07:22:24;10.09;72.62
69281;SHT31;56392;51.082;17.080;2023-04-15T07:27:48;10.08;71.68
69281;SHT31;56392;51.082;17.080;2023-04-15T07:33:14;10.13;71.82
69281;SHT31;56392;51.082;17.080;2023-04-15T07:38:40;10.16;72.14
69281;SHT31;56392;51.082;17.080;2023-04-15T07:44:05;10.20;71.10
69281;SHT31;56392;51.082;17.080;2023-04-15T07:49:28;10.23;71.76
69281;SHT31;56392;51.082;17.080;2023-04-15T07:54:52;10.33;72.02
69281;SHT31;56392;51.082;17.080;2023-04-15T08:00:16;10.42;72.14
69281;SHT31;56392;51.082;17.080;2023-04-15T08:05:41;10.53;71.92
69281;SHT31;56392;51.082;17.080;2023-04-15T08:11:08;10.67;71.62
69281;SHT31;56392;51.082;17.080;2023-04-15T08:16:33;10.83;71.71
69281;SHT31;56392;51.082;17.080;2023-04-15T08:21:57;10.93;69.60
69281;SHT31;56392;51.082;17.080;2023-04-15T08:27:19;11.21;69.61
69281;SHT31;56392;51.082;17.080;2023-04-15T08:32:45;11.72;69.89
69281;SHT31;56392;51.082;17.080;2023-04-15T08:38:08;12.28;67.20
69281;SHT31;56392;51.082;17.080;2023-04-15T08:43:33;12.44;65.95
69281;SHT31;56392;51.082;17.080;2023-04-15T08:49:02;12.55;63.46
69281;SHT31;56392;51.082;17.080;2023-04-15T08:54:26;12.81;62.60
69281;SHT31;56392;51.082;17.080;2023-04-15T08:59:49;12.98;60.13
69281;SHT31;56392;51.082;17.080;2023-04-15T09:05:15;13.16;60.76
69281;SHT31;56392;51.082;17.080;2023-04-15T09:10:38;13.19;60.68
69281;SHT31;56392;51.082;17.080;2023-04-15T09:16:01;13.18;61.71
69281;SHT31;56392;51.082;17.080;2023-04-15T09:21:27;13.36;60.45
69281;SHT31;56392;51.082;17.080;2023-04-15T09:26:57;13.50;59.71
69281;SHT31;56392;51.082;17.080;2023-04-15T09:32:20;13.67;59.82
69281;SHT31;56392;51.082;17.080;2023-04-15T09:37:46;13.82;58.60
69281;SHT31;56392;51.082;17.080;2023-04-15T09:43:10;13.94;60.09
69281;SHT31;56392;51.082;17.080;2023-04-15T09:48:35;14.05;57.06
69281;SHT31;56392;51.082;17.080;2023-04-15T09:54:00;13.97;58.66
69281;SHT31;56392;51.082;17.080;2023-04-15T09:59:23;13.88;58.99
69281;SHT31;56392;51.082;17.080;2023-04-15T10:04:47;13.85;59.49
69281;SHT31;56392;51.082;17.080;2023-04-15T10:10:14;13.73;57.72
69281;SHT31;56392;51.082;17.080;2023-04-15T10:15:38;13.78;58.48
69281;SHT31;56392;51.082;17.080;2023-04-15T10:21:03;13.67;58.22
69281;SHT31;56392;51.082;17.080;2023-04-15T10:26:29;13.69;58.71
69281;SHT31;56392;51.082;17.080;2023-04-15T10:31:53;13.77;58.50
69281;SHT31;56392;51.082;17.080;2023-04-15T10:37:21;13.74;58.16
69281;SHT31;56392;51.082;17.080;2023-04-15T10:42:45;13.85;58.59
69281;SHT31;56392;51.082;17.080;2023-04-15T10:48:09;13.92;57.37
69281;SHT31;56392;51.082;17.080;2023-04-15T10:53:32;13.81;55.48
69281;SHT31;56392;51.082;17.080;2023-04-15T10:58:59;13.85;56.92
69281;SHT31;56392;51.082;17.080;2023-04-15T11:10:49;13.98;55.64
69281;SHT31;56392;51.082;17.080;2023-04-15T11:16:18;13.90;54.93
69281;SHT31;56392;51.082;17.080;2023-04-15T11:21:42;13.95;54.74
69281;SHT31;56392;51.082;17.080;2023-04-15T11:27:05;14.26;57.06
69281;SHT31;56392;51.082;17.080;2023-04-15T11:32:29;14.63;55.63
69281;SHT31;56392;51.082;17.080;2023-04-15T11:37:53;14.69;55.37
69281;SHT31;56392;51.082;17.080;2023-04-15T11:43:18;14.59;55.92
69281;SHT31;56392;51.082;17.080;2023-04-15T11:48:44;14.43;55.26
69281;SHT31;56392;51.082;17.080;2023-04-15T11:54:07;14.36;55.85
69281;SHT31;56392;51.082;17.080;2023-04-15T11:59:40;14.39;55.32
69281;SHT31;56392;51.082;17.080;2023-04-15T12:05:06;14.29;55.84
69281;SHT31;56392;51.082;17.080;2023-04-15T12:10:30;14.39;56.79
69281;SHT31;56392;51.082;17.080;2023-04-15T12:15:56;14.53;55.44
69281;SHT31;56392;51.082;17.080;2023-04-15T12:21:21;14.48;56.30
69281;SHT31;56392;51.082;17.080;2023-04-15T12:26:46;14.45;56.02
69281;SHT31;56392;51.082;17.080;2023-04-15T12:32:11;14.38;56.52
69281;SHT31;56392;51.082;17.080;2023-04-15T12:37:35;14.40;55.95
69281;SHT31;56392;51.082;17.080;2023-04-15T12:42:58;14.40;54.25
69281;SHT31;56392;51.082;17.080;2023-04-15T12:48:22;14.40;54.27
69281;SHT31;56392;51.082;17.080;2023-04-15T12:53:47;14.43;54.00
69281;SHT31;56392;51.082;17.080;2023-04-15T12:59:11;14.39;55.00
69281;SHT31;56392;51.082;17.080;2023-04-15T13:04:34;14.39;53.95
69281;SHT31;56392;51.082;17.080;2023-04-15T13:09:59;14.35;54.12
69281;SHT31;56392;51.082;17.080;2023-04-15T13:15:23;14.38;54.42
69281;SHT31;56392;51.082;17.080;2023-04-15T13:20:47;14.43;54.48
69281;SHT31;56392;51.082;17.080;2023-04-15T13:26:11;14.48;53.07
69281;SHT31;56392;51.082;17.080;2023-04-15T13:31:42;14.45;54.06
69281;SHT31;56392;51.082;17.080;2023-04-15T13:37:06;14.50;54.32
69281;SHT31;56392;51.082;17.080;2023-04-15T13:42:29;14.63;53.98
69281;SHT31;56392;51.082;17.080;2023-04-15T13:47:54;14.53;53.35
69281;SHT31;56392;51.082;17.080;2023-04-15T13:53:18;14.69;53.04
69281;SHT31;56392;51.082;17.080;2023-04-15T13:58:41;14.76;53.53
69281;SHT31;56392;51.082;17.080;2023-04-15T14:04:05;14.83;52.54
69281;SHT31;56392;51.082;17.080;2023-04-15T14:09:29;14.83;52.75
69281;SHT31;56392;51.082;17.080;2023-04-15T14:14:52;14.90;52.02
69281;SHT31;56392;51.082;17.080;2023-04-15T14:20:19;14.93;52.40
69281;SHT31;56392;51.082;17.080;2023-04-15T14:25:42;14.89;52.60
69281;SHT31;56392;51.082;17.080;2023-04-15T14:31:05;14.69;52.76
69281;SHT31;56392;51.082;17.080;2023-04-15T14:36:30;14.76;52.59
69281;SHT31;56392;51.082;17.080;2023-04-15T14:41:54;14.77;51.55
69281;SHT31;56392;51.082;17.080;2023-04-15T14:47:17;14.75;51.11
69281;SHT31;56392;51.082;17.080;2023-04-15T14:52:41;14.63;51.84
69281;SHT31;56392;51.082;17.080;2023-04-15T14:58:05;14.75;51.65
69281;SHT31;56392;51.082;17.080;2023-04-15T15:03:28;14.77;51.61
69281;SHT31;56392;51.082;17.080;2023-04-15T15:08:54;14.87;51.26
69281;SHT31;56392;51.082;17.080;2023-04-15T15:14:17;14.80;52.23
69281;SHT31;56392;51.082;17.080;2023-04-15T15:19:40;14.77;53.23
69281;SHT31;56392;51.082;17.080;2023-04-15T15:25:05;14.79;53.19
69281;SHT31;56392;51.082;17.080;2023-04-15T15:30:28;14.68;53.06
69281;SHT31;56392;51.082;17.080;2023-04-15T15:35:52;14.60;54.30
69281;SHT31;56392;51.082;17.080;2023-04-15T15:41:17;14.49;54.01
69281;SHT31;56392;51.082;17.080;2023-04-15T15:46:40;14.48;55.17
69281;SHT31;56392;51.082;17.080;2023-04-15T15:52:03;14.43;55.05
69281;SHT31;56392;51.082;17.080;2023-04-15T15:57:28;14.39;55.83
69281;SHT31;56392;51.082;17.080;2023-04-15T16:02:54;14.32;55.65
69281;SHT31;56392;51.082;17.080;2023-04-15T16:08:17;14.28;55.57
69281;SHT31;56392;51.082;17.080;2023-04-15T16:13:42;14.24;56.02
69281;SHT31;56392;51.082;17.080;2023-04-15T16:19:05;14.22;55.72
69281;SHT31;56392;51.082;17.080;2023-04-15T16:24:29;14.11;55.92
69281;SHT31;56392;51.082;17.080;2023-04-15T16:29:53;14.05;56.01
69281;SHT31;56392;51.082;17.080;2023-04-15T16:35:17;14.02;55.90
69281;SHT31;56392;51.082;17.080;2023-04-15T16:40:40;13.97;56.45
69281;SHT31;56392;51.082;17.080;2023-04-15T16:46:05;13.92;56.50
69281;SHT31;56392;51.082;17.080;2023-04-15T16:51:28;13.87;56.31
69281;SHT31;56392;51.082;17.080;2023-04-15T16:56:54;13.87;58.05
69281;SHT31;56392;51.082;17.080;2023-04-15T17:02:19;13.82;57.83
69281;SHT31;56392;51.082;17.080;2023-04-15T17:07:42;13.75;58.35
69281;SHT31;56392;51.082;17.080;2023-04-15T17:13:06;13.70;58.53
69281;SHT31;56392;51.082;17.080;2023-04-15T17:18:30;13.66;58.44
69281;SHT31;56392;51.082;17.080;2023-04-15T17:23:54;13.59;59.17
69281;SHT31;56392;51.082;17.080;2023-04-15T17:29:17;13.54;59.68
69281;SHT31;56392;51.082;17.080;2023-04-15T17:34:42;13.47;60.24
69281;SHT31;56392;51.082;17.080;2023-04-15T17:40:06;13.39;60.99
69281;SHT31;56392;51.082;17.080;2023-04-15T17:45:29;13.27;62.63
69281;SHT31;56392;51.082;17.080;2023-04-15T17:50:56;13.22;62.37
69281;SHT31;56392;51.082;17.080;2023-04-15T17:56:19;13.13;61.58
69281;SHT31;56392;51.082;17.080;2023-04-15T18:01:42;13.08;61.18
69281;SHT31;56392;51.082;17.080;2023-04-15T18:07:07;13.02;62.59
69281;SHT31;56392;51.082;17.080;2023-04-15T18:12:30;12.96;64.97
69281;SHT31;56392;51.082;17.080;2023-04-15T18:17:53;12.95;65.78
69281;SHT31;56392;51.082;17.080;2023-04-15T18:23:18;12.89;66.45
69281;SHT31;56392;51.082;17.080;2023-04-15T18:28:41;12.89;66.41
69281;SHT31;56392;51.082;17.080;2023-04-15T18:34:06;12.89;66.65
69281;SHT31;56392;51.082;17.080;2023-04-15T18:39:30;12.89;66.85
69281;SHT31;56392;51.082;17.080;2023-04-15T18:44:53;12.87;67.26
69281;SHT31;56392;51.082;17.080;2023-04-15T18:50:17;12.85;67.51
69281;SHT31;56392;51.082;17.080;2023-04-15T18:55:41;12.87;67.61
69281;SHT31;56392;51.082;17.080;2023-04-15T19:01:04;12.87;68.17
69281;SHT31;56392;51.082;17.080;2023-04-15T19:06:28;12.84;68.24
69281;SHT31;56392;51.082;17.080;2023-04-15T19:11:52;12.79;68.49
69281;SHT31;56392;51.082;17.080;2023-04-15T19:17:17;12.77;68.57
69281;SHT31;56392;51.082;17.080;2023-04-15T19:22:40;12.77;68.84
69281;SHT31;56392;51.082;17.080;2023-04-15T19:28:05;12.71;68.95
69281;SHT31;56392;51.082;17.080;2023-04-15T19:33:28;12.67;69.25
69281;SHT31;56392;51.082;17.080;2023-04-15T19:38:52;12.62;69.70
69281;SHT31;56392;51.082;17.080;2023-04-15T19:44:17;12.55;69.72
69281;SHT31;56392;51.082;17.080;2023-04-15T19:49:42;12.51;70.08
69281;SHT31;56392;51.082;17.080;2023-04-15T19:55:06;12.47;70.24
69281;SHT31;56392;51.082;17.080;2023-04-15T20:00:31;12.47;70.10
69281;SHT31;56392;51.082;17.080;2023-04-15T20:05:55;12.42;70.30
69281;SHT31;56392;51.082;17.080;2023-04-15T20:11:18;12.38;70.31
69281;SHT31;56392;51.082;17.080;2023-04-15T20:16:43;12.38;70.56
69281;SHT31;56392;51.082;17.080;2023-04-15T20:22:06;12.28;70.90
69281;SHT31;56392;51.082;17.080;2023-04-15T20:27:29;12.28;70.89
69281;SHT31;56392;51.082;17.080;2023-04-15T20:32:54;12.27;71.07
69281;SHT31;56392;51.082;17.080;2023-04-15T20:38:17;12.28;71.24
69281;SHT31;56392;51.082;17.080;2023-04-15T20:43:41;12.24;71.23
69281;SHT31;56392;51.082;17.080;2023-04-15T20:49:05;12.23;71.49
69281;SHT31;56392;51.082;17.080;2023-04-15T20:54:29;12.18;71.73
69281;SHT31;56392;51.082;17.080;2023-04-15T20:59:52;12.18;71.99
69281;SHT31;56392;51.082;17.080;2023-04-15T21:05:17;12.16;71.88
69281;SHT31;56392;51.082;17.080;2023-04-15T21:10:40;12.13;72.80
69281;SHT31;56392;51.082;17.080;2023-04-15T21:16:04;12.09;72.74
69281;SHT31;56392;51.082;17.080;2023-04-15T21:21:28;12.07;72.42
69281;SHT31;56392;51.082;17.080;2023-04-15T21:26:52;12.01;72.61
69281;SHT31;56392;51.082;17.080;2023-04-15T21:32:15;11.94;72.91
69281;SHT31;56392;51.082;17.080;2023-04-15T21:37:40;11.87;73.11
69281;SHT31;56392;51.082;17.080;2023-04-15T21:43:03;11.79;73.36
69281;SHT31;56392;51.082;17.080;2023-04-15T21:48:26;11.73;73.59
69281;SHT31;56392;51.082;17.080;2023-04-15T21:53:50;11.69;73.84
69281;SHT31;56392;51.082;17.080;2023-04-15T21:59:14;11.62;73.97
69281;SHT31;56392;51.082;17.080;2023-04-15T22:04:37;11.66;74.16
69281;SHT31;56392;51.082;17.080;2023-04-15T22:10:02;11.59;74.42
69281;SHT31;56392;51.082;17.080;2023-04-15T22:15:25;11.58;74.39
69281;SHT31;56392;51.082;17.080;2023-04-15T22:20:49;11.55;74.57
69281;SHT31;56392;51.082;17.080;2023-04-15T22:26:13;11.48;74.60
69281;SHT31;56392;51.082;17.080;2023-04-15T22:31:37;11.46;74.60
69281;SHT31;56392;51.082;17.080;2023-04-15T22:37:00;11.42;75.05
69281;SHT31;56392;51.082;17.080;2023-04-15T22:42:24;11.45;74.74
69281;SHT31;56392;51.082;17.080;2023-04-15T22:47:47;11.49;75.06
69281;SHT31;56392;51.082;17.080;2023-04-15T22:53:10;11.51;75.14
69281;SHT31;56392;51.082;17.080;2023-04-15T22:58:35;11.51;75.01
69281;SHT31;56392;51.082;17.080;2023-04-15T23:03:58;11.49;75.20
69281;SHT31;56392;51.082;17.080;2023-04-15T23:09:22;11.46;75.03
69281;SHT31;56392;51.082;17.080;2023-04-15T23:14:46;11.46;75.48
69281;SHT31;56392;51.082;17.080;2023-04-15T23:20:10;11.45;75.64
69281;SHT31;56392;51.082;17.080;2023-04-15T23:25:33;11.39;75.87
69281;SHT31;56392;51.082;17.080;2023-04-15T23:30:58;11.38;76.13
69281;SHT31;56392;51.082;17.080;2023-04-15T23:36:21;11.35;75.99
69281;SHT31;56392;51.082;17.080;2023-04-15T23:41:44;11.25;76.16
69281;SHT31;56392;51.082;17.080;2023-04-15T23:47:09;11.22;76.08
69281;SHT31;56392;51.082;17.080;2023-04-15T23:52:32;11.12;76.04
69281;SHT31;56392;51.082;17.080;2023-04-15T23:57:55;10.98;76.28
